createdAt,value
2022-12-08T00:01:22.008Z,2.75
2022-12-08T00:05:42.731Z,3.10
2022-12-08T00:09:47.372Z,2.60
2022-12-08T00:13:48.988Z,2.55
2022-12-08T00:17:50.474Z,2.92
2022-12-08T00:21:53.077Z,2.80
2022-12-08T00:25:54.548Z,3.58
2022-12-08T00:29:56.239Z,2.67
2022-12-08T00:33:58.455Z,3.33
2022-12-08T00:38:00.977Z,2.72
2022-12-08T00:42:14.456Z,2.67
2022-12-08T00:46:16.841Z,2.47
2022-12-08T00:50:18.464Z,2.85
2022-12-08T00:54:20.585Z,2.90
2022-12-08T00:58:22.545Z,2.95
2022-12-08T01:02:24.919Z,2.63
2022-12-08T01:06:26.442Z,2.65
2022-12-08T01:10:28.538Z,2.65
2022-12-08T01:14:30.015Z,2.80
2022-12-08T01:18:31.878Z,2.90
2022-12-08T01:22:35.944Z,3.30
2022-12-08T01:26:37.776Z,3.60
2022-12-08T01:30:40.300Z,3.30
2022-12-08T01:34:41.970Z,3.50
2022-12-08T01:38:43.540Z,3.38
2022-12-08T01:42:45.010Z,3.28
2022-12-08T01:46:49.945Z,3.55
2022-12-08T01:50:53.740Z,3.00
2022-12-08T01:55:06.003Z,2.70
2022-12-08T01:59:07.598Z,2.90
2022-12-08T02:03:18.597Z,3.28
2022-12-08T02:07:20.394Z,3.35
2022-12-08T02:11:22.026Z,3.50
2022-12-08T02:15:46.418Z,3.35
2022-12-08T02:20:24.123Z,3.70
2022-12-08T02:24:34.284Z,3.17
2022-12-08T02:29:06.904Z,3.45
2022-12-08T02:33:34.599Z,3.67
2022-12-08T02:37:46.168Z,3.83
2022-12-08T02:41:56.685Z,3.47
2022-12-08T02:46:03.382Z,3.42
2022-12-08T02:50:06.060Z,4.40
2022-12-08T02:54:08.079Z,3.63
2022-12-08T02:58:25.033Z,4.20
2022-12-08T03:02:38.677Z,4.07
2022-12-08T03:07:03.944Z,3.88
2022-12-08T03:11:38.721Z,4.00
2022-12-08T03:15:43.527Z,4.50
2022-12-08T03:19:47.481Z,4.45
2022-12-08T03:23:53.392Z,4.43
2022-12-08T03:27:55.060Z,4.60
2022-12-08T03:32:00.226Z,3.90
2022-12-08T03:36:04.770Z,4.10
2022-12-08T03:40:09.255Z,3.90
2022-12-08T03:44:10.907Z,4.00
2022-12-08T03:48:12.370Z,3.67
2022-12-08T03:52:13.854Z,4.05
2022-12-08T03:56:30.594Z,4.55
2022-12-08T04:00:32.097Z,3.92
2022-12-08T04:04:33.603Z,4.10
2022-12-08T04:08:35.217Z,4.38
2022-12-08T04:12:36.846Z,3.95
2022-12-08T04:16:38.545Z,3.92
2022-12-08T04:20:44.745Z,3.88
2022-12-08T04:24:46.244Z,3.60
2022-12-08T04:28:47.774Z,3.72
2022-12-08T04:32:49.233Z,4.25
2022-12-08T04:36:50.766Z,3.95
2022-12-08T04:40:52.395Z,3.65
2022-12-08T04:44:53.889Z,3.90
2022-12-08T04:48:55.408Z,4.20
2022-12-08T04:52:56.883Z,3.72
2022-12-08T04:56:58.388Z,4.05
2022-12-08T05:00:59.915Z,4.05
2022-12-08T05:05:01.443Z,3.88
2022-12-08T05:09:03.051Z,4.30
2022-12-08T05:13:04.573Z,4.22
2022-12-08T05:17:10.143Z,3.88
2022-12-08T05:21:12.156Z,3.45
2022-12-08T05:25:13.689Z,3.90
2022-12-08T05:29:15.163Z,3.60
2022-12-08T05:33:17.111Z,3.90
2022-12-08T05:37:18.629Z,3.78
2022-12-08T05:41:21.409Z,3.90
2022-12-08T05:45:23.023Z,3.80
2022-12-08T05:49:24.567Z,3.67
2022-12-08T05:53:26.428Z,4.90
2022-12-08T05:57:28.108Z,5.40
2022-12-08T06:01:31.893Z,4.53
2022-12-08T06:05:34.847Z,4.80
2022-12-08T06:09:36.500Z,4.50
2022-12-08T06:13:38.025Z,5.18
2022-12-08T06:17:39.821Z,5.03
2022-12-08T06:21:41.401Z,4.82
2022-12-08T06:25:42.926Z,4.47
2022-12-08T06:29:44.591Z,4.60
2022-12-08T06:33:46.513Z,4.47
2022-12-08T06:37:48.100Z,4.30
2022-12-08T06:42:08.295Z,4.50
2022-12-08T06:46:13.781Z,4.40
2022-12-08T06:50:15.625Z,4.97
2022-12-08T06:54:17.104Z,4.50
2022-12-08T06:58:19.872Z,4.80
2022-12-08T07:02:21.464Z,4.68
2022-12-08T07:06:24.900Z,4.57
2022-12-08T07:10:26.635Z,4.38
2022-12-08T07:14:28.405Z,4.60
2022-12-08T07:18:30.331Z,4.82
2022-12-08T07:22:31.969Z,4.35
2022-12-08T07:26:33.573Z,4.68
2022-12-08T07:30:35.171Z,4.50
2022-12-08T07:34:36.735Z,4.50
2022-12-08T07:38:38.326Z,4.75
2022-12-08T07:42:39.833Z,4.50
2022-12-08T07:46:41.601Z,4.53
2022-12-08T07:50:43.368Z,5.47
2022-12-08T07:54:45.267Z,4.53
2022-12-08T07:58:46.980Z,4.70
2022-12-08T08:02:49.178Z,5.03
2022-12-08T08:06:50.787Z,4.65
2022-12-08T08:12:30.226Z,4.32
2022-12-08T08:16:38.414Z,6.47
2022-12-08T08:20:42.777Z,5.30
2022-12-08T08:24:45.277Z,5.10
2022-12-08T08:28:48.254Z,4.55
2022-12-08T08:32:50.822Z,4.72
2022-12-08T08:36:59.009Z,4.63
2022-12-08T08:41:02.862Z,4.32
2022-12-08T08:45:08.593Z,4.68
2022-12-08T08:49:10.622Z,5.15
2022-12-08T08:53:15.238Z,4.40
2022-12-08T08:57:23.659Z,5.00
2022-12-08T09:01:30.246Z,5.28
2022-12-08T09:05:34.949Z,11.45
2022-12-08T09:09:39.398Z,5.05
2022-12-08T09:14:30.970Z,4.97
2022-12-08T09:18:33.472Z,4.65
2022-12-08T09:22:35.187Z,5.40
2022-12-08T09:26:37.494Z,4.93
2022-12-08T09:30:40.774Z,5.10
2022-12-08T09:34:44.432Z,4.75
2022-12-08T09:38:51.411Z,5.28
2022-12-08T09:43:43.336Z,4.32
2022-12-08T09:47:59.781Z,4.45
2022-12-08T09:52:58.590Z,4.32
2022-12-08T09:58:08.840Z,4.10
2022-12-08T10:02:21.741Z,4.20
2022-12-08T10:06:38.617Z,4.18
2022-12-08T10:10:55.720Z,4.50
2022-12-08T10:15:35.676Z,4.30
2022-12-08T10:20:11.739Z,3.97
2022-12-08T10:24:23.473Z,4.78
2022-12-08T10:28:25.987Z,4.03
2022-12-08T10:32:35.224Z,4.25
2022-12-08T10:36:48.498Z,3.78
2022-12-08T10:40:53.287Z,4.07
2022-12-08T10:45:03.425Z,4.20
2022-12-08T10:49:34.049Z,4.25
2022-12-08T10:54:06.155Z,4.50
2022-12-08T10:58:45.117Z,4.15
2022-12-08T11:03:00.899Z,4.25
2022-12-08T11:07:06.692Z,3.85
2022-12-08T11:11:08.685Z,3.88
2022-12-08T11:15:16.494Z,3.40
2022-12-08T11:19:20.489Z,3.72
2022-12-08T11:23:27.853Z,3.80
2022-12-08T11:27:30.777Z,3.40
2022-12-08T11:31:40.749Z,3.17
2022-12-08T11:35:45.428Z,3.40
2022-12-08T11:39:51.538Z,3.33
2022-12-08T11:48:47.803Z,3.20
2022-12-08T11:58:58.331Z,3.20
2022-12-08T12:03:08.064Z,2.85
2022-12-08T12:07:26.163Z,2.67
2022-12-08T12:12:12.372Z,2.85
2022-12-08T12:16:33.068Z,2.38
2022-12-08T12:20:56.170Z,2.85
2022-12-08T12:24:59.568Z,2.42
2022-12-08T12:29:15.573Z,2.42
2022-12-08T12:33:20.317Z,2.45
2022-12-08T12:37:36.471Z,2.65
2022-12-08T12:41:52.665Z,2.65
2022-12-08T12:46:23.146Z,2.67
2022-12-08T12:50:36.569Z,3.70
2022-12-08T12:54:42.513Z,2.88
2022-12-08T12:58:44.585Z,2.40
2022-12-08T13:02:51.669Z,2.60
2022-12-08T13:06:53.742Z,3.60
2022-12-08T13:11:04.363Z,5.03
2022-12-08T13:15:16.876Z,2.83
2022-12-08T13:19:19.401Z,2.75
2022-12-08T13:23:48.412Z,3.80
2022-12-08T13:28:21.676Z,3.00
2022-12-08T13:32:39.042Z,3.40
2022-12-08T13:36:59.601Z,4.85
2022-12-08T13:41:15.177Z,3.28
2022-12-08T13:46:12.182Z,2.72
2022-12-08T13:56:24.292Z,2.50
2022-12-08T13:59:18.517Z,3.45
2022-12-08T14:03:20.320Z,3.05
2022-12-08T14:07:45.208Z,2.88
2022-12-08T14:12:45.487Z,3.10
2022-12-08T14:17:13.079Z,3.20
2022-12-08T14:21:22.100Z,2.80
2022-12-08T14:25:56.167Z,2.92
2022-12-08T14:30:34.521Z,2.67
2022-12-08T14:35:17.017Z,3.63
2022-12-08T14:39:22.068Z,3.58
2022-12-08T14:43:45.786Z,3.40
2022-12-08T14:47:48.585Z,3.17
2022-12-08T14:51:50.215Z,3.85
2022-12-08T14:55:57.562Z,3.85
2022-12-08T15:00:19.979Z,3.60
2022-12-08T15:05:04.796Z,4.30
2022-12-08T15:09:36.749Z,3.58
2022-12-08T15:13:49.662Z,3.83
2022-12-08T15:18:19.245Z,4.63
2022-12-08T15:22:29.983Z,10.15
2022-12-08T15:26:46.176Z,3.80
2022-12-08T15:30:48.035Z,4.18
2022-12-08T15:34:50.294Z,3.80
2022-12-08T15:38:51.826Z,3.45
2022-12-08T15:42:53.813Z,4.07
2022-12-08T15:46:55.741Z,3.22
2022-12-08T15:50:57.712Z,3.53
2022-12-08T15:55:02.922Z,4.47
2022-12-08T15:59:04.582Z,3.67
2022-12-08T16:07:57.486Z,4.20
2022-12-08T16:12:18.177Z,4.03
2022-12-08T16:16:30.093Z,3.75
2022-12-08T16:21:05.462Z,3.97
2022-12-08T16:24:55.296Z,3.95
2022-12-08T16:29:01.476Z,4.05
2022-12-08T16:33:03.286Z,3.53
2022-12-08T16:38:12.545Z,3.88
2022-12-08T16:47:13.628Z,3.97
2022-12-08T16:51:48.272Z,3.67
2022-12-08T16:55:54.187Z,3.65
2022-12-08T16:59:56.523Z,3.88
2022-12-08T17:04:29.931Z,3.63
2022-12-08T17:08:24.920Z,3.53
2022-12-08T17:12:31.587Z,3.63
2022-12-08T17:16:35.008Z,4.00
2022-12-08T17:20:38.023Z,3.90
2022-12-08T17:24:39.772Z,3.85
2022-12-08T17:29:00.125Z,4.38
2022-12-08T17:33:10.871Z,3.78
2022-12-08T17:37:15.727Z,4.50
2022-12-08T17:41:17.707Z,4.70
2022-12-08T17:45:44.008Z,4.03
2022-12-08T17:49:48.210Z,3.90
2022-12-08T17:53:49.893Z,4.07
2022-12-08T17:57:57.439Z,3.85
2022-12-08T18:06:31.211Z,3.72
2022-12-08T18:10:35.702Z,3.45
2022-12-08T18:14:37.370Z,4.15
2022-12-08T18:18:42.002Z,4.07
2022-12-08T18:23:17.594Z,3.50
2022-12-08T18:27:19.622Z,3.60
2022-12-08T18:31:22.806Z,3.75
2022-12-08T18:35:47.653Z,3.58
2022-12-08T18:40:09.350Z,3.53
2022-12-08T18:44:12.861Z,3.40
2022-12-08T18:48:24.624Z,3.55
2022-12-08T18:52:32.302Z,4.18
2022-12-08T18:56:50.063Z,4.10
2022-12-08T19:01:13.214Z,3.92
2022-12-08T19:05:15.472Z,4.07
2022-12-08T19:09:17.505Z,4.25
2022-12-08T19:13:22.618Z,4.18
2022-12-08T19:17:27.314Z,3.60
2022-12-08T19:21:29.147Z,4.03
2022-12-08T19:25:37.122Z,3.90
2022-12-08T19:29:41.630Z,4.53
2022-12-08T19:33:52.083Z,3.95
2022-12-08T19:38:13.740Z,3.97
2022-12-08T19:42:54.566Z,3.50
2022-12-08T19:47:02.182Z,3.72
2022-12-08T19:51:35.527Z,3.78
2022-12-08T19:55:59.364Z,3.50
2022-12-08T20:00:01.232Z,4.00
2022-12-08T20:04:03.432Z,3.78
2022-12-08T20:08:06.617Z,5.05
2022-12-08T20:12:28.238Z,3.63
2022-12-08T20:16:31.184Z,3.08
2022-12-08T20:20:32.971Z,3.38
2022-12-08T20:25:02.359Z,3.95
2022-12-08T20:29:50.936Z,3.90
2022-12-08T20:33:59.713Z,3.80
2022-12-08T20:38:03.283Z,3.83
2022-12-08T20:42:05.234Z,4.45
2022-12-08T20:50:34.967Z,4.35
2022-12-08T20:54:37.366Z,4.25
2022-12-08T20:58:59.223Z,4.80
2022-12-08T21:09:05.763Z,4.57
2022-12-08T21:13:14.882Z,4.10
2022-12-08T21:17:20.843Z,4.68
2022-12-08T21:21:22.722Z,4.80
2022-12-08T21:26:05.086Z,4.05
2022-12-08T21:30:12.972Z,4.15
2022-12-08T21:34:45.000Z,4.47
2022-12-08T21:39:18.287Z,4.85
2022-12-08T21:43:20.130Z,5.25
2022-12-08T21:47:27.155Z,4.43
2022-12-08T21:51:33.462Z,5.00
2022-12-08T21:56:20.765Z,4.72
2022-12-08T22:00:29.882Z,5.38
2022-12-08T22:04:31.675Z,5.18
2022-12-08T22:08:36.475Z,5.28
2022-12-08T22:12:42.929Z,5.60
2022-12-08T22:21:18.118Z,4.80
2022-12-08T22:25:57.990Z,5.78
2022-12-08T22:29:59.885Z,5.82
2022-12-08T22:34:51.283Z,6.03
2022-12-08T22:39:18.902Z,5.70
2022-12-08T22:43:45.005Z,5.28
2022-12-08T22:47:52.359Z,5.80
2022-12-08T22:52:25.350Z,6.18
2022-12-08T23:03:08.854Z,6.47
2022-12-08T23:07:10.637Z,5.57
2022-12-08T23:11:49.281Z,5.80
2022-12-08T23:16:16.315Z,6.57
2022-12-08T23:20:19.103Z,6.45
2022-12-08T23:25:11.272Z,7.03
2022-12-08T23:30:03.052Z,6.40
2022-12-08T23:34:05.044Z,6.20
2022-12-08T23:38:06.683Z,6.22
2022-12-08T23:42:08.266Z,5.93
2022-12-08T23:46:09.863Z,5.60
2022-12-08T23:50:12.274Z,5.80
2022-12-08T23:54:49.775Z,6.32
2022-12-08T23:59:42.719Z,6.78
